createdAt,value
2018-10-12T00:00:37.917Z,0
2018-10-12T00:01:38.176Z,0
2018-10-12T00:02:38.658Z,0
2018-10-12T00:03:38.493Z,0
2018-10-12T00:04:38.205Z,0
2018-10-12T00:05:38.230Z,0
2018-10-12T00:06:38.476Z,0
2018-10-12T00:07:38.232Z,0
2018-10-12T00:08:38.250Z,0
2018-10-12T00:09:38.254Z,0
2018-10-12T00:10:38.269Z,0
2018-10-12T00:11:38.028Z,0
2018-10-12T00:12:38.288Z,0
2018-10-12T00:13:38.598Z,0
2018-10-12T00:14:38.053Z,0
2018-10-12T00:15:38.310Z,0
2018-10-12T00:16:38.316Z,0
2018-10-12T00:17:38.325Z,0
2018-10-12T00:18:38.078Z,0
2018-10-12T00:19:38.578Z,0
2018-10-12T00:20:38.583Z,0
2018-10-12T00:21:38.602Z,0
2018-10-12T00:22:38.355Z,0
2018-10-12T00:23:38.652Z,0
2018-10-12T00:24:38.371Z,0
2018-10-12T00:25:38.145Z,0
2018-10-12T00:26:38.396Z,0
2018-10-12T00:27:38.659Z,0
2018-10-12T00:28:38.463Z,0
2018-10-12T00:29:38.674Z,0
2018-10-12T00:30:38.675Z,0
2018-10-12T00:31:38.676Z,0
2018-10-12T00:32:38.690Z,0
2018-10-12T00:33:38.704Z,0
2018-10-12T00:34:38.198Z,0
2018-10-12T00:35:38.717Z,0
2018-10-12T00:36:38.720Z,0
2018-10-12T00:37:38.223Z,0
2018-10-12T00:38:38.743Z,0
2018-10-12T00:39:38.809Z,0
2018-10-12T00:40:38.531Z,0
2018-10-12T00:41:38.514Z,0
2018-10-12T00:42:38.541Z,0
2018-10-12T00:43:38.834Z,0
2018-10-12T00:44:38.283Z,0
2018-10-12T00:45:38.797Z,0
2018-10-12T00:46:38.549Z,0
2018-10-12T00:47:38.562Z,0
2018-10-12T00:48:38.827Z,0
2018-10-12T00:49:38.679Z,0
2018-10-12T00:50:38.844Z,0
2018-10-12T00:51:38.824Z,0
2018-10-12T00:52:38.340Z,0
2018-10-12T00:53:38.872Z,0
2018-10-12T00:54:38.624Z,0
2018-10-12T00:55:38.893Z,0
2018-10-12T00:56:38.398Z,0
2018-10-12T00:57:38.904Z,0
2018-10-12T00:58:38.960Z,0
2018-10-12T00:59:38.666Z,0
2018-10-12T01:00:38.416Z,0
2018-10-12T01:01:38.676Z,0
2018-10-12T01:02:38.969Z,0
2018-10-12T01:03:38.696Z,0
2018-10-12T01:04:38.963Z,0
2018-10-12T01:05:38.961Z,0
2018-10-12T01:06:39.208Z,0
2018-10-12T01:07:38.720Z,0
2018-10-12T01:08:38.970Z,0
2018-10-12T01:09:38.979Z,0
2018-10-12T01:10:38.995Z,0
2018-10-12T01:11:38.995Z,0
2018-10-12T01:12:38.755Z,0
2018-10-12T01:13:39.066Z,0
2018-10-12T01:14:38.765Z,0
2018-10-12T01:15:38.778Z,0
2018-10-12T01:16:39.029Z,0
2018-10-12T01:17:38.790Z,0
2018-10-12T01:18:39.115Z,0
2018-10-12T01:19:39.089Z,0
2018-10-12T01:20:38.827Z,0
2018-10-12T01:21:38.843Z,0
2018-10-12T01:22:38.852Z,0
2018-10-12T01:23:38.851Z,0
2018-10-12T01:24:39.143Z,0
2018-10-12T01:25:39.128Z,0
2018-10-12T01:26:39.137Z,0
2018-10-12T01:27:39.139Z,0
2018-10-12T01:28:38.930Z,0
2018-10-12T01:29:38.891Z,0
2018-10-12T01:30:39.147Z,0
2018-10-12T01:31:38.903Z,0
2018-10-12T01:32:39.175Z,0
2018-10-12T01:33:39.205Z,0
2018-10-12T01:34:38.931Z,0
2018-10-12T01:35:38.942Z,0
2018-10-12T01:36:38.701Z,0
2018-10-12T01:37:39.214Z,0
2018-10-12T01:38:39.019Z,0
2018-10-12T01:39:38.975Z,0
2018-10-12T01:40:39.266Z,0
2018-10-12T01:41:39.251Z,0
2018-10-12T01:42:39.016Z,0
2018-10-12T01:43:39.018Z,0
2018-10-12T01:44:39.029Z,0
2018-10-12T01:45:39.274Z,0
2018-10-12T01:46:39.297Z,0
2018-10-12T01:47:39.303Z,0
2018-10-12T01:48:39.410Z,0
2018-10-12T01:49:39.321Z,0
2018-10-12T01:50:39.321Z,0
2018-10-12T01:51:39.083Z,0
2018-10-12T01:52:39.084Z,0
2018-10-12T01:53:39.095Z,0
2018-10-12T01:54:39.357Z,0
2018-10-12T01:55:39.125Z,0
2018-10-12T01:56:39.120Z,0
2018-10-12T01:57:39.105Z,0
2018-10-12T01:58:38.608Z,0
2018-10-12T01:59:38.889Z,0
2018-10-12T02:00:39.383Z,0
2018-10-12T02:01:38.884Z,0
2018-10-12T02:02:39.415Z,0
2018-10-12T02:03:39.476Z,0
2018-10-12T02:04:39.184Z,0
2018-10-12T02:05:39.444Z,0
2018-10-12T02:06:39.190Z,0
2018-10-12T02:07:39.448Z,0
2018-10-12T02:08:39.214Z,0
2018-10-12T02:09:39.458Z,0
2018-10-12T02:10:39.470Z,0
2018-10-12T02:11:39.233Z,0
2018-10-12T02:12:39.543Z,0
2018-10-12T02:13:39.491Z,0
2018-10-12T02:14:39.497Z,0
2018-10-12T02:15:39.001Z,0
2018-10-12T02:16:39.522Z,0
2018-10-12T02:17:39.265Z,0
2018-10-12T02:18:39.577Z,0
2018-10-12T02:19:39.293Z,0
2018-10-12T02:20:39.545Z,0
2018-10-12T02:21:39.547Z,0
2018-10-12T02:22:39.563Z,0
2018-10-12T02:23:39.570Z,0
2018-10-12T02:24:39.314Z,0
2018-10-12T02:25:39.074Z,0
2018-10-12T02:26:39.607Z,0
2018-10-12T02:27:39.352Z,0
2018-10-12T02:28:39.611Z,0
2018-10-12T02:29:39.620Z,0
2018-10-12T02:30:39.643Z,0
2018-10-12T02:31:39.385Z,0
2018-10-12T02:32:39.396Z,0
2018-10-12T02:33:39.699Z,0
2018-10-12T02:34:39.664Z,0
2018-10-12T02:35:39.416Z,0
2018-10-12T02:36:39.438Z,0
2018-10-12T02:37:39.437Z,0
2018-10-12T02:38:39.701Z,0
2018-10-12T02:39:39.522Z,0
2018-10-12T02:40:39.731Z,0
2018-10-12T02:41:39.213Z,0
2018-10-12T02:42:39.733Z,0
2018-10-12T02:43:39.234Z,0
2018-10-12T02:44:39.487Z,0
2018-10-12T02:45:39.499Z,0
2018-10-12T02:46:39.769Z,0
2018-10-12T02:47:39.515Z,0
2018-10-12T02:48:39.838Z,0
2018-10-12T02:49:39.794Z,0
2018-10-12T02:50:39.787Z,0
2018-10-12T02:51:39.802Z,0
2018-10-12T02:52:39.811Z,0
2018-10-12T02:53:39.815Z,0
2018-10-12T02:54:39.829Z,0
2018-10-12T02:55:39.828Z,0
2018-10-12T02:56:39.839Z,0
2018-10-12T02:57:39.843Z,0
2018-10-12T02:58:39.855Z,0
2018-10-12T02:59:39.859Z,0
2018-10-12T03:00:39.876Z,0
2018-10-12T03:01:39.894Z,0
2018-10-12T03:02:39.883Z,0
2018-10-12T03:03:39.683Z,0
2018-10-12T03:04:39.898Z,0
2018-10-12T03:05:39.650Z,0
2018-10-12T03:06:39.657Z,0
2018-10-12T03:07:39.662Z,0
2018-10-12T03:08:39.705Z,0
2018-10-12T03:09:39.961Z,0
2018-10-12T03:10:39.463Z,0
2018-10-12T03:11:39.957Z,0
2018-10-12T03:12:39.952Z,0
2018-10-12T03:13:39.972Z,0
2018-10-12T03:14:39.470Z,0
2018-10-12T03:15:39.730Z,0
2018-10-12T03:16:39.732Z,0
2018-10-12T03:17:39.746Z,0
2018-10-12T03:18:39.545Z,0
2018-10-12T03:19:39.777Z,0
2018-10-12T03:20:40.030Z,0
2018-10-12T03:21:40.024Z,0
2018-10-12T03:22:39.776Z,0
2018-10-12T03:23:39.782Z,0
2018-10-12T03:24:39.800Z,0
2018-10-12T03:25:40.058Z,0
2018-10-12T03:26:40.064Z,0
2018-10-12T03:27:39.819Z,0
2018-10-12T03:28:40.087Z,0
2018-10-12T03:29:39.591Z,0
2018-10-12T03:30:39.867Z,0
2018-10-12T03:31:40.107Z,0
2018-10-12T03:32:40.116Z,0
2018-10-12T03:33:39.909Z,0
2018-10-12T03:34:39.861Z,0
2018-10-12T03:35:40.126Z,0
2018-10-12T03:36:39.878Z,0
2018-10-12T03:37:40.140Z,0
2018-10-12T03:38:39.891Z,0
2018-10-12T03:39:39.659Z,0
2018-10-12T03:40:40.206Z,0
2018-10-12T03:41:39.927Z,0
2018-10-12T03:42:39.960Z,0
2018-10-12T03:43:39.994Z,0
2018-10-12T03:44:39.966Z,0
2018-10-12T03:45:40.200Z,0
2018-10-12T03:46:39.954Z,0
2018-10-12T03:47:39.964Z,0
2018-10-12T03:48:40.222Z,0
2018-10-12T03:49:39.999Z,0
2018-10-12T03:50:40.038Z,0
2018-10-12T03:51:39.998Z,0
2018-10-12T03:52:40.021Z,0
2018-10-12T03:53:39.780Z,0
2018-10-12T03:54:40.031Z,0
2018-10-12T03:55:40.290Z,0
2018-10-12T03:56:40.304Z,0
2018-10-12T03:57:40.053Z,0
2018-10-12T03:58:40.363Z,0
2018-10-12T03:59:40.071Z,0
2018-10-12T04:00:40.334Z,0
2018-10-12T04:01:40.074Z,0
2018-10-12T04:02:40.250Z,0
2018-10-12T04:03:40.345Z,0
2018-10-12T04:04:40.094Z,0
2018-10-12T04:05:40.123Z,0
2018-10-12T04:06:40.132Z,0
2018-10-12T04:07:40.397Z,0
2018-10-12T04:08:40.374Z,0
2018-10-12T04:09:40.382Z,0
2018-10-12T04:10:40.139Z,0
2018-10-12T04:11:40.149Z,0
2018-10-12T04:12:40.879Z,0
2018-10-12T04:13:40.539Z,0
2018-10-12T04:14:40.186Z,0
2018-10-12T04:15:40.443Z,0
2018-10-12T04:16:40.193Z,0
2018-10-12T04:17:40.470Z,0
2018-10-12T04:18:40.468Z,0
2018-10-12T04:19:40.231Z,0
2018-10-12T04:20:40.245Z,0
2018-10-12T04:21:40.224Z,0
2018-10-12T04:22:40.513Z,0
2018-10-12T04:23:40.248Z,0
2018-10-12T04:24:40.506Z,0
2018-10-12T04:25:40.524Z,0
2018-10-12T04:26:40.271Z,0
2018-10-12T04:27:40.526Z,0
2018-10-12T04:28:40.331Z,0
2018-10-12T04:29:40.296Z,0
2018-10-12T04:30:40.307Z,0
2018-10-12T04:31:40.596Z,0
2018-10-12T04:32:40.558Z,0
2018-10-12T04:33:40.606Z,0
2018-10-12T04:34:40.576Z,0
2018-10-12T04:35:40.613Z,0
2018-10-12T04:36:40.595Z,0
2018-10-12T04:37:40.606Z,0
2018-10-12T04:38:40.726Z,0
2018-10-12T04:39:40.361Z,0
2018-10-12T04:40:40.630Z,0
2018-10-12T04:41:40.638Z,0
2018-10-12T04:42:40.705Z,0
2018-10-12T04:43:40.448Z,0
2018-10-12T04:44:40.661Z,0
2018-10-12T04:45:40.415Z,0
2018-10-12T04:46:40.676Z,0
2018-10-12T04:47:40.437Z,0
2018-10-12T04:48:40.701Z,0
2018-10-12T04:49:40.709Z,0
2018-10-12T04:50:40.696Z,0
2018-10-12T04:51:40.455Z,0
2018-10-12T04:52:40.461Z,0
2018-10-12T04:53:40.624Z,0
2018-10-12T04:54:40.724Z,0
2018-10-12T04:55:40.486Z,4
2018-10-12T04:56:40.750Z,4
2018-10-12T04:57:40.745Z,4
2018-10-12T04:58:40.547Z,4
2018-10-12T04:59:40.755Z,0
2018-10-12T05:00:40.967Z,4
2018-10-12T05:01:40.521Z,4
2018-10-12T05:02:40.790Z,8
2018-10-12T05:03:40.791Z,4
2018-10-12T05:04:40.799Z,4
2018-10-12T05:05:40.803Z,8
2018-10-12T05:06:40.812Z,8
2018-10-12T05:07:41.142Z,8
2018-10-12T05:08:40.845Z,12
2018-10-12T05:09:40.843Z,16
2018-10-12T05:10:40.581Z,16
2018-10-12T05:11:40.594Z,16
2018-10-12T05:12:40.844Z,24
2018-10-12T05:13:40.925Z,28
2018-10-12T05:14:40.362Z,32
2018-10-12T05:15:40.646Z,36
2018-10-12T05:16:40.630Z,40
2018-10-12T05:17:40.632Z,52
2018-10-12T05:18:40.515Z,60
2018-10-12T05:19:40.647Z,64
2018-10-12T05:20:40.922Z,72
2018-10-12T05:21:40.921Z,84
2018-10-12T05:22:40.677Z,100
2018-10-12T05:23:40.725Z,108
2018-10-12T05:24:40.680Z,124
2018-10-12T05:25:40.943Z,136
2018-10-12T05:26:40.697Z,152
2018-10-12T05:27:40.951Z,168
2018-10-12T05:28:41.067Z,188
2018-10-12T05:29:40.971Z,204
2018-10-12T05:30:40.980Z,220
2018-10-12T05:31:40.731Z,240
2018-10-12T05:32:40.726Z,260
2018-10-12T05:33:40.844Z,280
2018-10-12T05:34:40.740Z,300
2018-10-12T05:35:41.003Z,324
2018-10-12T05:36:41.007Z,340
2018-10-12T05:37:41.013Z,368
2018-10-12T05:38:41.818Z,388
2018-10-12T05:39:40.770Z,412
2018-10-12T05:40:40.781Z,440
2018-10-12T05:41:40.784Z,460
2018-10-12T05:42:40.892Z,488
2018-10-12T05:43:41.216Z,512
2018-10-12T05:44:41.072Z,540
2018-10-12T05:45:41.077Z,564
2018-10-12T05:46:41.087Z,584
2018-10-12T05:47:41.041Z,624
2018-10-12T05:48:41.275Z,652
2018-10-12T05:49:41.106Z,684
2018-10-12T05:50:40.855Z,720
2018-10-12T05:51:41.127Z,752
2018-10-12T05:52:40.612Z,780
2018-10-12T05:53:41.184Z,816
2018-10-12T05:54:40.886Z,852
2018-10-12T05:55:41.328Z,888
2018-10-12T05:56:40.388Z,936
2018-10-12T05:57:40.652Z,976
2018-10-12T05:58:40.911Z,1004
2018-10-12T05:59:41.165Z,1040
2018-10-12T06:00:41.174Z,1104
2018-10-12T06:01:40.930Z,1172
2018-10-12T06:02:41.214Z,1224
2018-10-12T06:03:41.193Z,1272
2018-10-12T06:04:41.004Z,1312
2018-10-12T06:05:40.703Z,1348
2018-10-12T06:06:41.217Z,1384
2018-10-12T06:07:40.723Z,1420
2018-10-12T06:08:40.721Z,1456
2018-10-12T06:09:41.323Z,1492
2018-10-12T06:10:41.014Z,1528
2018-10-12T06:11:41.005Z,1564
2018-10-12T06:12:41.268Z,1600
2018-10-12T06:13:41.282Z,1636
2018-10-12T06:14:41.277Z,1672
2018-10-12T06:15:41.867Z,1712
2018-10-12T06:16:41.280Z,1748
2018-10-12T06:17:41.299Z,1788
2018-10-12T06:18:41.045Z,1820
2018-10-12T06:19:41.109Z,1864
2018-10-12T06:20:41.317Z,1900
2018-10-12T06:21:41.700Z,1940
2018-10-12T06:22:41.309Z,1976
2018-10-12T06:23:41.344Z,2020
2018-10-12T06:24:41.078Z,2056
2018-10-12T06:25:41.347Z,2096
2018-10-12T06:26:41.586Z,2144
2018-10-12T06:27:41.096Z,2180
2018-10-12T06:28:41.372Z,2228
2018-10-12T06:29:41.129Z,2268
2018-10-12T06:30:41.400Z,2308
2018-10-12T06:31:41.391Z,2348
2018-10-12T06:32:41.441Z,2392
2018-10-12T06:33:41.170Z,2424
2018-10-12T06:34:41.477Z,2460
2018-10-12T06:35:41.416Z,2504
2018-10-12T06:36:41.417Z,2548
2018-10-12T06:37:41.169Z,2588
2018-10-12T06:38:41.173Z,2632
2018-10-12T06:39:41.441Z,2672
2018-10-12T06:40:41.519Z,2712
2018-10-12T06:41:42.286Z,2752
2018-10-12T06:42:41.457Z,2788
2018-10-12T06:43:41.477Z,2820
2018-10-12T06:44:41.230Z,2860
2018-10-12T06:45:41.228Z,2900
2018-10-12T06:46:41.188Z,2936
2018-10-12T06:47:41.501Z,2968
2018-10-12T06:48:41.517Z,3012
2018-10-12T06:49:41.056Z,3040
2018-10-12T06:50:41.269Z,3072
2018-10-12T06:51:41.525Z,3112
2018-10-12T06:52:41.029Z,3140
2018-10-12T06:53:41.281Z,3172
2018-10-12T06:54:41.293Z,3204
2018-10-12T06:55:41.296Z,3244
2018-10-12T06:56:41.053Z,3284
2018-10-12T06:57:41.311Z,3316
2018-10-12T06:58:41.596Z,3352
2018-10-12T06:59:41.579Z,3388
2018-10-12T07:00:41.338Z,3416
2018-10-12T07:01:41.351Z,3452
2018-10-12T07:02:41.349Z,3496
2018-10-12T07:03:41.101Z,3524
2018-10-12T07:04:41.666Z,3560
2018-10-12T07:05:42.054Z,3600
2018-10-12T07:06:41.369Z,3628
2018-10-12T07:07:41.675Z,3672
2018-10-12T07:08:41.386Z,3708
2018-10-12T07:09:41.652Z,3736
2018-10-12T07:10:41.415Z,3780
2018-10-12T07:11:41.158Z,3804
2018-10-12T07:12:41.672Z,3828
2018-10-12T07:13:41.826Z,3872
2018-10-12T07:14:42.763Z,3912
2018-10-12T07:15:41.434Z,3940
2018-10-12T07:16:41.442Z,3972
2018-10-12T07:17:41.446Z,4012
2018-10-12T07:18:41.469Z,4048
2018-10-12T07:19:41.038Z,4092
2018-10-12T07:20:41.739Z,4120
2018-10-12T07:21:41.743Z,4172
2018-10-12T07:22:41.507Z,4212
2018-10-12T07:23:41.507Z,4240
2018-10-12T07:24:41.512Z,4280
2018-10-12T07:25:41.794Z,4324
2018-10-12T07:26:41.537Z,4364
2018-10-12T07:27:41.545Z,4412
2018-10-12T07:28:41.541Z,4440
2018-10-12T07:29:41.874Z,4480
2018-10-12T07:30:41.570Z,4524
2018-10-12T07:31:41.916Z,4552
2018-10-12T07:32:41.849Z,4596
2018-10-12T07:33:41.840Z,4604
2018-10-12T07:34:41.908Z,4652
2018-10-12T07:35:41.884Z,4704
2018-10-12T07:36:41.357Z,4736
2018-10-12T07:37:42.386Z,4776
2018-10-12T07:38:41.633Z,4804
2018-10-12T07:39:41.386Z,4832
2018-10-12T07:40:41.934Z,4884
2018-10-12T07:41:41.666Z,4912
2018-10-12T07:42:42.457Z,4940
2018-10-12T07:43:41.926Z,4972
2018-10-12T07:44:41.699Z,5012
2018-10-12T07:45:41.940Z,5040
2018-10-12T07:46:41.673Z,5068
2018-10-12T07:47:41.681Z,5108
2018-10-12T07:48:41.695Z,5144
2018-10-12T07:49:41.753Z,5172
2018-10-12T07:50:41.710Z,5192
2018-10-12T07:51:42.000Z,5228
2018-10-12T07:52:42.012Z,5260
2018-10-12T07:53:41.780Z,5296
2018-10-12T07:54:42.021Z,5308
2018-10-12T07:55:42.035Z,5348
2018-10-12T07:56:41.804Z,5376
2018-10-12T07:57:42.054Z,5404
2018-10-12T07:58:41.822Z,5440
2018-10-12T07:59:41.814Z,5460
2018-10-12T08:00:42.651Z,5500
2018-10-12T08:01:42.080Z,5532
2018-10-12T08:02:41.843Z,5556
2018-10-12T08:03:41.845Z,5584
2018-10-12T08:04:42.025Z,5604
2018-10-12T08:05:41.865Z,5632
2018-10-12T08:06:42.400Z,5660
2018-10-12T08:07:41.873Z,5688
2018-10-12T08:08:42.140Z,5708
2018-10-12T08:09:42.476Z,5736
2018-10-12T08:10:41.907Z,5760
2018-10-12T08:11:41.917Z,5776
2018-10-12T08:12:42.180Z,5804
2018-10-12T08:13:42.471Z,5824
2018-10-12T08:14:41.999Z,5844
2018-10-12T08:15:41.958Z,5864
2018-10-12T08:16:41.974Z,5888
2018-10-12T08:17:42.227Z,5916
2018-10-12T08:18:42.240Z,5944
2018-10-12T08:19:42.235Z,5976
2018-10-12T08:20:42.253Z,5996
2018-10-12T08:21:42.257Z,6028
2018-10-12T08:22:42.267Z,6052
2018-10-12T08:23:42.278Z,6080
2018-10-12T08:24:42.291Z,6104
2018-10-12T08:25:42.300Z,6132
2018-10-12T08:26:42.314Z,6156
2018-10-12T08:27:41.805Z,6180
2018-10-12T08:28:41.814Z,6208
2018-10-12T08:29:42.390Z,6240
2018-10-12T08:30:42.088Z,6268
2018-10-12T08:31:42.400Z,6300
2018-10-12T08:32:42.375Z,6324
2018-10-12T08:33:42.448Z,6360
2018-10-12T08:34:42.381Z,6380
2018-10-12T08:35:42.139Z,6416
2018-10-12T08:36:43.035Z,6452
2018-10-12T08:37:42.410Z,6476
2018-10-12T08:38:42.162Z,6508
2018-10-12T08:39:42.481Z,6544
2018-10-12T08:40:42.432Z,6576
2018-10-12T08:41:42.301Z,6616
2018-10-12T08:42:42.204Z,6648
2018-10-12T08:43:42.473Z,6684
2018-10-12T08:44:42.476Z,6716
2018-10-12T08:45:42.231Z,6736
2018-10-12T08:46:42.489Z,6748
2018-10-12T08:47:42.502Z,6820
2018-10-12T08:48:42.508Z,6852
2018-10-12T08:49:42.267Z,6880
2018-10-12T08:50:42.280Z,6900
2018-10-12T08:51:42.542Z,6932
2018-10-12T08:52:42.296Z,6964
2018-10-12T08:53:42.572Z,6992
2018-10-12T08:54:43.364Z,7024
2018-10-12T08:55:42.650Z,7056
2018-10-12T08:56:42.083Z,7084
2018-10-12T08:57:42.595Z,7104
2018-10-12T08:58:42.607Z,7136
2018-10-12T08:59:42.615Z,7156
2018-10-12T09:00:42.620Z,7180
2018-10-12T09:01:42.837Z,7212
2018-10-12T09:02:42.634Z,7236
2018-10-12T09:03:42.399Z,7256
2018-10-12T09:04:42.713Z,7280
2018-10-12T09:05:42.439Z,7304
2018-10-12T09:06:42.688Z,7316
2018-10-12T09:07:42.440Z,7328
2018-10-12T09:08:42.707Z,7352
2018-10-12T09:09:42.844Z,7372
2018-10-12T09:10:42.473Z,7388
2018-10-12T09:11:42.737Z,7400
2018-10-12T09:12:42.488Z,7420
2018-10-12T09:13:42.778Z,7448
2018-10-12T09:14:42.755Z,7464
2018-10-12T09:15:42.524Z,7476
2018-10-12T09:16:42.771Z,7504
2018-10-12T09:17:42.789Z,7524
2018-10-12T09:18:42.789Z,7532
2018-10-12T09:19:42.857Z,7548
2018-10-12T09:20:43.098Z,7572
2018-10-12T09:21:42.646Z,7588
2018-10-12T09:22:42.581Z,7604
2018-10-12T09:23:42.087Z,7624
2018-10-12T09:24:42.615Z,7628
2018-10-12T09:25:42.879Z,7636
2018-10-12T09:26:42.886Z,7652
2018-10-12T09:27:42.392Z,7676
2018-10-12T09:28:42.662Z,7692
2018-10-12T09:29:42.982Z,7712
2018-10-12T09:30:42.687Z,7732
2018-10-12T09:31:42.949Z,7744
2018-10-12T09:32:42.947Z,7760
2018-10-12T09:33:42.971Z,7776
2018-10-12T09:34:42.777Z,7796
2018-10-12T09:35:42.729Z,7808
2018-10-12T09:36:43.664Z,7724
2018-10-12T09:37:42.755Z,7848
2018-10-12T09:38:43.040Z,7860
2018-10-12T09:39:42.776Z,7880
2018-10-12T09:40:43.113Z,7904
2018-10-12T09:41:42.793Z,7908
2018-10-12T09:42:43.056Z,7912
2018-10-12T09:43:43.071Z,7940
2018-10-12T09:44:43.565Z,7956
2018-10-12T09:45:43.103Z,7972
2018-10-12T09:46:42.833Z,7988
2018-10-12T09:47:43.097Z,7992
2018-10-12T09:48:43.109Z,8004
2018-10-12T09:49:43.165Z,8016
2018-10-12T09:50:42.900Z,8028
2018-10-12T09:51:43.151Z,8032
2018-10-12T09:52:42.922Z,8036
2018-10-12T09:53:43.171Z,8052
2018-10-12T09:54:43.185Z,8048
2018-10-12T09:55:43.205Z,8068
2018-10-12T09:56:43.207Z,8088
2018-10-12T09:57:43.227Z,8088
2018-10-12T09:58:43.234Z,8120
2018-10-12T09:59:42.990Z,8140
2018-10-12T10:00:42.999Z,8160
2018-10-12T10:01:43.391Z,8176
2018-10-12T10:02:43.021Z,8204
2018-10-12T10:03:43.286Z,8324
2018-10-12T10:04:43.089Z,9416
2018-10-12T10:05:43.292Z,11116
2018-10-12T10:06:43.051Z,12636
2018-10-12T10:07:43.538Z,13140
2018-10-12T10:08:43.571Z,13228
2018-10-12T10:09:42.826Z,13268
2018-10-12T10:10:43.342Z,13400
2018-10-12T10:11:42.851Z,13476
2018-10-12T10:12:43.112Z,13600
2018-10-12T10:13:42.978Z,13696
2018-10-12T10:14:43.398Z,13852
2018-10-12T10:15:43.666Z,14000
2018-10-12T10:16:43.173Z,14204
2018-10-12T10:17:43.194Z,14400
2018-10-12T10:18:43.458Z,14668
2018-10-12T10:19:43.327Z,15076
2018-10-12T10:20:43.226Z,15764
2018-10-12T10:21:43.491Z,16456
2018-10-12T10:22:43.769Z,16812
2018-10-12T10:23:43.276Z,17184
2018-10-12T10:24:43.282Z,17696
2018-10-12T10:25:43.290Z,18368
2018-10-12T10:26:43.535Z,19232
2018-10-12T10:27:43.547Z,20288
2018-10-12T10:28:43.567Z,20480
2018-10-12T10:29:43.092Z,20000
2018-10-12T10:30:43.361Z,19808
2018-10-12T10:31:43.613Z,20128
2018-10-12T10:32:43.383Z,20864
2018-10-12T10:33:43.157Z,26016
2018-10-12T10:34:43.209Z,37568
2018-10-12T10:35:43.462Z,49728
2018-10-12T10:36:43.721Z,52960
2018-10-12T10:37:43.746Z,53056
2018-10-12T10:38:43.761Z,53504
2018-10-12T10:39:43.777Z,51104
2018-10-12T10:40:43.797Z,49152
2018-10-12T10:41:43.824Z,51680
2018-10-12T10:42:43.579Z,54016
2018-10-12T10:43:43.855Z,53088
2018-10-12T10:44:44.409Z,50592
2018-10-12T10:45:43.889Z,48480
2018-10-12T10:46:43.639Z,46912
2018-10-12T10:47:43.914Z,47936
2018-10-12T10:48:43.929Z,48928
2018-10-12T10:49:43.997Z,49152
2018-10-12T10:50:43.733Z,49664
2018-10-12T10:51:43.729Z,50048
2018-10-12T10:52:43.756Z,49824
2018-10-12T10:53:44.494Z,49216
2018-10-12T10:54:44.040Z,48736
2018-10-12T10:55:44.069Z,47104
2018-10-12T10:56:43.841Z,46016
2018-10-12T10:57:43.863Z,46592
2018-10-12T10:58:44.140Z,51616
2018-10-12T10:59:44.214Z,56480
2018-10-12T11:00:43.945Z,56768
2018-10-12T11:01:44.192Z,53184
2018-10-12T11:02:44.225Z,51744
2018-10-12T11:03:43.983Z,54656
2018-10-12T11:04:44.313Z,59104
2018-10-12T11:05:44.287Z,60768
2018-10-12T11:06:44.307Z,61216
2018-10-12T11:07:44.338Z,31616
2018-10-12T11:08:44.357Z,61600
2018-10-12T11:09:45.125Z,57920
2018-10-12T11:10:44.151Z,60416
2018-10-12T11:11:44.421Z,61984
2018-10-12T11:12:44.837Z,61152
2018-10-12T11:13:44.255Z,59264
2018-10-12T11:14:44.296Z,57792
2018-10-12T11:15:44.258Z,57632
2018-10-12T11:16:44.514Z,57856
2018-10-12T11:17:44.030Z,59872
2018-10-12T11:18:44.568Z,58496
2018-10-12T11:19:44.940Z,60032
2018-10-12T11:20:44.615Z,65344
2018-10-12T11:21:44.375Z,66784
2018-10-12T11:22:44.647Z,61728
2018-10-12T11:23:44.678Z,62720
2018-10-12T11:24:44.981Z,63904
2018-10-12T11:25:44.718Z,64160
2018-10-12T11:26:44.764Z,61696
2018-10-12T11:27:44.776Z,52032
2018-10-12T11:28:44.549Z,47744
2018-10-12T11:29:44.870Z,54176
2018-10-12T11:30:44.589Z,60800
2018-10-12T11:31:44.354Z,60992
2018-10-12T11:32:45.192Z,63360
2018-10-12T11:33:44.665Z,64864
2018-10-12T11:34:45.997Z,60480
2018-10-12T11:35:44.969Z,56960
2018-10-12T11:36:44.498Z,56864
2018-10-12T11:37:44.757Z,62688
2018-10-12T11:38:45.033Z,71712
2018-10-12T11:39:45.060Z,101536
2018-10-12T11:40:45.079Z,109856
2018-10-12T11:41:44.611Z,77024
2018-10-12T11:42:45.134Z,44320
2018-10-12T11:43:45.161Z,35552
2018-10-12T11:44:45.289Z,33984
2018-10-12T11:45:45.206Z,34624
2018-10-12T11:46:45.236Z,32416
2018-10-12T11:47:45.242Z,30304
2018-10-12T11:48:45.263Z,30848
2018-10-12T11:49:45.045Z,32672
2018-10-12T11:50:45.321Z,34240
2018-10-12T11:51:45.099Z,35456
2018-10-12T11:52:45.125Z,35648
2018-10-12T11:53:45.149Z,35616
2018-10-12T11:54:45.178Z,36192
2018-10-12T11:55:45.449Z,36608
2018-10-12T11:56:45.479Z,36928
2018-10-12T11:57:45.247Z,38400
2018-10-12T11:58:45.519Z,41632
2018-10-12T11:59:45.604Z,45536
2018-10-12T12:00:45.675Z,48512
2018-10-12T12:01:45.604Z,51360
2018-10-12T12:02:45.395Z,53184
2018-10-12T12:03:45.645Z,53376
2018-10-12T12:04:45.720Z,57792
2018-10-12T12:05:45.443Z,64288
2018-10-12T12:06:45.722Z,64640
2018-10-12T12:07:45.014Z,57984
2018-10-12T12:08:45.524Z,57728
2018-10-12T12:09:45.805Z,65440
2018-10-12T12:10:45.840Z,73888
2018-10-12T12:11:45.860Z,80096
2018-10-12T12:12:45.890Z,82496
2018-10-12T12:13:46.381Z,80896
2018-10-12T12:14:45.681Z,78400
2018-10-12T12:15:45.974Z,76928
2018-10-12T12:16:45.743Z,73344
2018-10-12T12:17:45.516Z,71264
2018-10-12T12:18:46.043Z,73120
2018-10-12T12:19:46.001Z,76960
2018-10-12T12:20:46.083Z,75968
2018-10-12T12:21:46.105Z,73024
2018-10-12T12:22:46.134Z,68576
2018-10-12T12:23:45.911Z,66176
2018-10-12T12:24:45.937Z,71232
2018-10-12T12:25:46.213Z,77728
2018-10-12T12:26:46.261Z,82112
2018-10-12T12:27:45.509Z,83552
2018-10-12T12:28:46.293Z,85184
2018-10-12T12:29:46.086Z,87744
2018-10-12T12:30:46.101Z,88608
2018-10-12T12:31:45.624Z,89280
2018-10-12T12:32:45.901Z,92800
2018-10-12T12:33:46.431Z,93472
2018-10-12T12:34:46.715Z,92096
2018-10-12T12:35:48.229Z,89088
2018-10-12T12:36:46.265Z,91744
2018-10-12T12:37:46.296Z,92256
2018-10-12T12:38:46.315Z,91424
2018-10-12T12:39:46.398Z,91936
2018-10-12T12:40:46.114Z,92000
2018-10-12T12:41:46.677Z,91616
2018-10-12T12:42:46.169Z,89984
2018-10-12T12:43:46.725Z,91456
2018-10-12T12:44:46.733Z,93920
2018-10-12T12:45:46.248Z,92672
2018-10-12T12:46:46.779Z,89408
2018-10-12T12:47:47.390Z,87872
2018-10-12T12:48:49.006Z,85952
2018-10-12T12:49:46.103Z,88480
2018-10-12T12:50:46.632Z,91520
2018-10-12T12:51:46.939Z,93152
2018-10-12T12:52:46.956Z,92832
2018-10-12T12:53:46.878Z,90816
2018-10-12T12:54:46.926Z,89472
2018-10-12T12:55:47.047Z,91168
2018-10-12T12:56:47.070Z,89248
2018-10-12T12:57:46.857Z,85824
2018-10-12T12:58:46.874Z,82016
2018-10-12T12:59:47.153Z,80064
2018-10-12T13:00:47.664Z,83616
2018-10-12T13:01:46.696Z,86912
2018-10-12T13:02:46.976Z,88416
2018-10-12T13:03:47.009Z,89568
2018-10-12T13:04:46.776Z,90496
2018-10-12T13:05:47.065Z,90912
2018-10-12T13:06:47.353Z,88736
2018-10-12T13:07:47.119Z,83904
2018-10-12T13:08:47.398Z,83328
2018-10-12T13:09:47.471Z,86304
2018-10-12T13:10:47.451Z,88256
2018-10-12T13:11:47.224Z,91840
2018-10-12T13:12:47.006Z,94208
2018-10-12T13:13:47.180Z,95488
2018-10-12T13:14:47.310Z,95552
2018-10-12T13:15:47.598Z,94560
2018-10-12T13:16:47.617Z,93824
2018-10-12T13:17:47.398Z,92928
2018-10-12T13:18:47.421Z,94112
2018-10-12T13:19:47.705Z,95136
2018-10-12T13:20:47.723Z,95904
2018-10-12T13:21:47.766Z,95232
2018-10-12T13:22:47.800Z,94432
2018-10-12T13:23:47.818Z,93376
2018-10-12T13:24:47.388Z,97696
2018-10-12T13:25:47.863Z,92576
2018-10-12T13:26:47.641Z,89280
2018-10-12T13:27:47.925Z,76416
2018-10-12T13:28:47.952Z,68000
2018-10-12T13:29:47.985Z,53856
2018-10-12T13:30:48.029Z,57824
2018-10-12T13:31:48.057Z,65664
2018-10-12T13:32:48.019Z,76480
2018-10-12T13:33:48.109Z,85408
2018-10-12T13:34:47.930Z,92032
2018-10-12T13:35:47.900Z,92544
2018-10-12T13:36:47.930Z,90112
2018-10-12T13:37:48.267Z,91168
2018-10-12T13:38:48.236Z,90720
2018-10-12T13:39:48.133Z,90272
2018-10-12T13:40:48.299Z,90464
2018-10-12T13:41:48.325Z,89312
2018-10-12T13:42:47.844Z,87872
2018-10-12T13:43:48.378Z,85504
2018-10-12T13:44:48.252Z,83360